Time;durP1;ratioP1;P1;durP2;ratioP2;P2;SDS_P1;SDS_P2;PMS_P1;PMS_P2;Temp;Humidity;BMP_temperature;BMP_pressure;BME280_temperature;BME280_humidity;BME280_pressure;Samples;Min_cycle;Max_cycle;Signal;HPM_P1;HPM_P2
2023/06/16 00:00:12;;;;;;;5.87;4.10;;;;;;;15.53;100.00;100146.16;5003227;28;20245;-61
2023/06/16 00:02:41;;;;;;;6.00;3.90;;;;;;;15.43;100.00;100157.22;5026167;28;20214;-61
2023/06/16 00:05:11;;;;;;;8.47;4.73;;;;;;;15.30;100.00;100151.31;5010168;28;20572;-62
2023/06/16 00:07:37;;;;;;;7.73;3.87;;;;;;;15.20;100.00;100153.75;4999957;28;20538;-61
2023/06/16 00:10:07;;;;;;;5.10;4.47;;;;;;;15.13;100.00;100162.88;5007680;28;20182;-62
2023/06/16 00:12:33;;;;;;;6.37;4.47;;;;;;;15.03;100.00;100152.38;5026486;28;20487;-60
2023/06/16 00:14:58;;;;;;;5.03;4.53;;;;;;;15.01;100.00;100157.66;5009608;28;20244;-64
2023/06/16 00:17:26;;;;;;;6.13;4.57;;;;;;;14.96;100.00;100162.34;5011355;28;20626;-61
2023/06/16 00:19:55;;;;;;;5.97;4.43;;;;;;;14.78;100.00;100164.50;5011351;28;20306;-60
2023/06/16 00:22:22;;;;;;;8.00;4.83;;;;;;;14.70;100.00;100164.22;5000939;28;20700;-60
2023/06/16 00:24:47;;;;;;;6.37;4.10;;;;;;;14.68;100.00;100160.91;5011982;28;20187;-61
2023/06/16 00:27:12;;;;;;;6.23;4.80;;;;;;;14.65;100.00;100164.53;5011296;28;20560;-60
2023/06/16 00:29:40;;;;;;;4.97;4.47;;;;;;;14.56;100.00;100159.97;5011328;28;20190;-61
2023/06/16 00:32:06;;;;;;;5.60;4.50;;;;;;;14.56;100.00;100156.56;5003042;28;20325;-61
2023/06/16 00:34:31;;;;;;;5.57;4.70;;;;;;;14.53;100.00;100152.44;5010954;28;20628;-61
2023/06/16 00:36:57;;;;;;;6.93;4.27;;;;;;;14.57;100.00;100153.84;5010799;28;20186;-61
2023/06/16 00:39:23;;;;;;;4.93;4.40;;;;;;;14.59;100.00;100152.00;5011235;28;20523;-61
2023/06/16 00:41:48;;;;;;;5.73;3.80;;;;;;;14.58;100.00;100157.28;5014747;28;20278;-61
2023/06/16 00:44:13;;;;;;;4.90;4.20;;;;;;;14.52;100.00;100161.97;5009543;28;20265;-61
2023/06/16 00:46:39;;;;;;;4.87;4.00;;;;;;;14.55;100.00;100155.75;5010887;28;20193;-61
2023/06/16 00:49:04;;;;;;;7.83;3.90;;;;;;;14.56;100.00;100153.97;5011156;28;20197;-60
2023/06/16 00:51:30;;;;;;;6.60;3.93;;;;;;;14.54;100.00;100146.31;5010179;28;20380;-61
2023/06/16 00:53:56;;;;;;;7.33;4.23;;;;;;;14.52;100.00;100149.03;5008867;28;20240;-61
2023/06/16 00:56:24;;;;;;;4.30;3.90;;;;;;;14.59;100.00;100149.41;5003590;28;20180;-61
2023/06/16 00:58:51;;;;;;;5.73;4.00;;;;;;;14.60;100.00;100145.91;5010858;28;20613;-61
2023/06/16 01:01:17;;;;;;;5.90;4.03;;;;;;;14.49;100.00;100146.66;5010822;28;20738;-60
2023/06/16 01:03:44;;;;;;;6.17;4.03;;;;;;;14.53;100.00;100142.91;5020450;28;20262;-61
2023/06/16 01:06:25;;;;;;;4.63;4.20;;;;;;;14.49;100.00;100140.66;5014477;28;20182;-61
2023/06/16 01:08:59;;;;;;;6.40;4.47;;;;;;;14.60;100.00;100145.06;5014976;28;20179;-60
2023/06/16 01:11:47;;;;;;;5.23;3.60;;;;;;;14.46;100.00;100148.63;5015530;28;20222;-61
2023/06/16 01:14:20;;;;;;;6.80;4.40;;;;;;;14.58;100.00;100142.56;5005792;28;20248;-61
2023/06/16 01:16:48;;;;;;;7.00;4.20;;;;;;;14.58;100.00;100140.00;5013940;28;20226;-62
2023/06/16 01:19:22;;;;;;;7.17;3.80;;;;;;;14.45;100.00;100139.19;5014467;28;20209;-61
2023/06/16 01:22:12;;;;;;;5.63;4.73;;;;;;;14.41;100.00;100138.56;5017850;28;20688;-61
2023/06/16 01:24:42;;;;;;;5.03;4.13;;;;;;;14.52;100.00;100143.00;5013239;28;20187;-61
2023/06/16 01:27:10;;;;;;;5.50;4.10;;;;;;;14.42;100.00;100145.41;5014002;28;20202;-61
2023/06/16 01:29:37;;;;;;;4.50;4.10;;;;;;;14.31;100.00;100145.34;5014651;28;20666;-61
2023/06/16 01:32:05;;;;;;;8.43;4.97;;;;;;;14.34;100.00;100152.91;5019975;28;20221;-62
2023/06/16 01:34:33;;;;;;;4.57;4.03;;;;;;;14.29;100.00;100152.38;5014170;28;20245;-60
2023/06/16 01:37:00;;;;;;;4.93;3.73;;;;;;;14.28;100.00;100150.75;5014504;28;20190;-61
2023/06/16 01:39:27;;;;;;;6.07;4.53;;;;;;;14.29;100.00;100157.53;5014585;28;20186;-61
2023/06/16 01:41:53;;;;;;;5.07;4.00;;;;;;;14.23;100.00;100148.47;5018306;28;20694;-61
2023/06/16 01:44:20;;;;;;;4.40;4.00;;;;;;;14.27;100.00;100152.47;5015143;28;20486;-61
2023/06/16 01:46:46;;;;;;;6.57;4.07;;;;;;;14.32;100.00;100154.75;5012518;28;20187;-60
2023/06/16 01:49:12;;;;;;;4.73;4.10;;;;;;;14.30;100.00;100154.88;5014781;28;20175;-61
2023/06/16 01:51:37;;;;;;;5.53;4.13;;;;;;;14.25;100.00;100148.34;5016970;28;20221;-61
2023/06/16 01:54:02;;;;;;;5.43;4.50;;;;;;;14.21;100.00;100145.16;5012956;28;20563;-61
2023/06/16 01:56:29;;;;;;;4.43;4.03;;;;;;;14.21;100.00;100150.31;5006012;28;20195;-61
2023/06/16 01:58:55;;;;;;;5.07;4.10;;;;;;;14.17;100.00;100149.69;5014144;28;20202;-61
2023/06/16 02:01:26;;;;;;;28.53;5.00;;;;;;;14.11;100.00;100142.38;5013633;28;20214;-61
2023/06/16 02:04:08;;;;;;;6.40;4.40;;;;;;;14.03;100.00;100142.09;5018430;28;20232;-62
2023/06/16 02:06:41;;;;;;;4.17;3.67;;;;;;;14.08;100.00;100144.34;5013064;28;20642;-61
2023/06/16 02:09:09;;;;;;;4.53;4.10;;;;;;;14.02;100.00;100140.44;5013971;28;20178;-61
2023/06/16 02:11:35;;;;;;;5.30;4.00;;;;;;;13.96;100.00;100146.00;5015441;28;20236;-62
2023/06/16 02:14:02;;;;;;;4.93;4.30;;;;;;;13.92;100.00;100147.97;5003004;28;20198;-61
2023/06/16 02:16:27;;;;;;;5.93;3.77;;;;;;;13.87;100.00;100140.53;5012814;28;20560;-61
2023/06/16 02:18:53;;;;;;;5.17;3.90;;;;;;;13.81;100.00;100148.69;5013556;28;20265;-61
2023/06/16 02:21:19;;;;;;;5.70;4.40;;;;;;;13.84;100.00;100143.34;5013086;28;20370;-60
2023/06/16 02:23:45;;;;;;;4.77;4.27;;;;;;;13.85;100.00;100144.16;5018981;28;20626;-60
2023/06/16 02:26:10;;;;;;;6.47;4.37;;;;;;;13.77;100.00;100146.41;5013505;28;20221;-62
2023/06/16 02:28:35;;;;;;;4.40;4.00;;;;;;;13.71;100.00;100145.09;5013216;28;20178;-61
2023/06/16 02:31:00;;;;;;;4.70;3.73;;;;;;;13.71;100.00;100148.47;5010941;28;20701;-61
2023/06/16 02:33:26;;;;;;;5.00;4.50;;;;;;;13.71;100.00;100147.66;5020893;28;20262;-60
2023/06/16 02:35:51;;;;;;;5.33;4.20;;;;;;;13.70;100.00;100148.59;5012939;28;20194;-62
2023/06/16 02:38:17;;;;;;;5.37;4.20;;;;;;;13.68;100.00;100153.03;5013110;28;20188;-61
2023/06/16 02:40:42;;;;;;;6.37;3.93;;;;;;;13.81;100.00;100147.88;5008249;28;20606;-61
2023/06/16 02:43:07;;;;;;;5.73;4.10;;;;;;;13.70;100.00;100141.66;5023510;28;20190;-61
2023/06/16 02:45:33;;;;;;;4.67;4.20;;;;;;;13.62;100.00;100146.53;5013306;28;20627;-61
2023/06/16 02:47:58;;;;;;;6.77;4.37;;;;;;;13.65;100.00;100145.50;5012209;28;20193;-61
2023/06/16 02:50:23;;;;;;;4.87;4.40;;;;;;;13.71;100.00;100145.91;5004995;28;20237;-61
2023/06/16 02:52:49;;;;;;;7.70;4.80;;;;;;;13.65;100.00;100148.91;5006536;28;20226;-61
2023/06/16 02:55:15;;;;;;;5.73;4.17;;;;;;;13.60;100.00;100145.78;5012636;28;20599;-62
2023/06/16 02:57:40;;;;;;;5.17;4.00;;;;;;;13.52;100.00;100143.72;5006469;28;20270;-61
2023/06/16 03:00:10;;;;;;;4.57;4.17;;;;;;;13.45;100.00;100141.66;4994599;28;20191;-61
2023/06/16 03:02:36;;;;;;;4.60;4.10;;;;;;;13.44;100.00;100140.00;5011409;28;20289;-61
2023/06/16 03:05:03;;;;;;;4.40;4.00;;;;;;;13.49;100.00;100141.31;5012901;28;20183;-61
2023/06/16 03:07:31;;;;;;;5.20;4.60;;;;;;;13.40;100.00;100134.19;5013433;28;20183;-62
2023/06/16 03:09:56;;;;;;;6.23;4.60;;;;;;;13.36;100.00;100135.31;5013308;28;20193;-61
2023/06/16 03:12:22;;;;;;;4.90;4.40;;;;;;;13.34;100.00;100132.81;5018217;28;20763;-61
2023/06/16 03:14:47;;;;;;;5.07;4.00;;;;;;;13.39;100.00;100135.94;5012877;28;20202;-61
2023/06/16 03:17:13;;;;;;;5.00;3.93;;;;;;;13.49;100.00;100137.94;5017571;28;20267;-61
2023/06/16 03:19:38;;;;;;;5.90;3.67;;;;;;;13.46;100.00;100141.53;5013035;28;20187;-61
2023/06/16 03:22:04;;;;;;;6.80;5.10;;;;;;;13.45;100.00;100136.50;5011799;28;20678;-61
2023/06/16 03:24:33;;;;;;;5.83;4.40;;;;;;;13.41;100.00;100146.19;5005828;28;20182;-61
2023/06/16 03:26:58;;;;;;;5.20;4.70;;;;;;;13.38;100.00;100136.03;5012268;28;20562;-61
2023/06/16 03:29:24;;;;;;;4.97;4.53;;;;;;;13.26;100.00;100142.81;5011712;28;20178;-61
2023/06/16 03:31:49;;;;;;;4.60;4.03;;;;;;;13.35;100.00;100143.97;4976192;28;20231;-61
2023/06/16 03:34:15;;;;;;;6.20;4.27;;;;;;;13.40;100.00;100147.94;5010166;28;20206;-62
2023/06/16 03:36:40;;;;;;;6.30;4.57;;;;;;;13.48;100.00;100147.44;5011169;28;20185;-61
2023/06/16 03:39:06;;;;;;;6.73;4.07;;;;;;;13.52;100.00;100142.88;5012717;28;20183;-61
2023/06/16 03:41:34;;;;;;;5.83;4.40;;;;;;;13.47;100.00;100150.97;5011613;28;20265;-62
2023/06/16 03:44:00;;;;;;;7.43;4.90;;;;;;;13.60;100.00;100150.97;5000668;28;20182;-62
2023/06/16 03:46:27;;;;;;;6.00;4.60;;;;;;;13.53;100.00;100142.81;5011875;28;20174;-62
2023/06/16 03:48:52;;;;;;;5.73;5.10;;;;;;;13.56;100.00;100150.34;5012857;28;20618;-62
2023/06/16 03:51:17;;;;;;;7.77;4.97;;;;;;;13.65;100.00;100153.25;5011928;28;20301;-61
2023/06/16 03:53:43;;;;;;;12.83;4.90;;;;;;;13.69;100.00;100152.94;5011325;28;20535;-61
2023/06/16 03:56:08;;;;;;;5.03;4.40;;;;;;;13.73;100.00;100158.75;5005373;28;20179;-61
2023/06/16 03:58:33;;;;;;;7.17;5.07;;;;;;;13.85;100.00;100160.50;5011722;28;20209;-62
2023/06/16 04:00:59;;;;;;;6.03;4.40;;;;;;;13.85;100.00;100157.06;5009409;28;20218;-61
2023/06/16 04:03:26;;;;;;;7.27;4.50;;;;;;;13.88;100.00;100168.03;5020142;28;20206;-62
2023/06/16 04:05:53;;;;;;;5.60;4.40;;;;;;;13.93;100.00;100169.47;5011503;28;20179;-61
2023/06/16 04:08:18;;;;;;;7.87;4.43;;;;;;;13.96;100.00;100169.28;5011493;28;20270;-61
2023/06/16 04:10:43;;;;;;;5.13;4.73;;;;;;;14.04;100.00;100167.84;4994572;28;20230;-60
2023/06/16 04:13:08;;;;;;;4.83;4.30;;;;;;;14.14;100.00;100180.97;5021212;28;20658;-62
2023/06/16 04:15:34;;;;;;;7.13;4.80;;;;;;;14.22;100.00;100177.84;5009797;28;20198;-61
2023/06/16 04:18:00;;;;;;;7.30;5.00;;;;;;;14.38;100.00;100169.84;5026294;28;20670;-61
2023/06/16 04:20:25;;;;;;;5.00;4.17;;;;;;;14.42;100.00;100173.88;5004849;28;20240;-61
2023/06/16 04:22:51;;;;;;;5.07;4.17;;;;;;;14.51;100.00;100173.25;5024075;28;20601;-62
2023/06/16 04:25:17;;;;;;;6.03;4.23;;;;;;;14.57;100.00;100169.41;5010511;28;20182;-62
2023/06/16 04:27:43;;;;;;;5.50;4.63;;;;;;;14.65;100.00;100169.72;5026476;28;20211;-61
2023/06/16 04:30:09;;;;;;;8.17;4.07;;;;;;;14.64;100.00;100170.63;5002692;28;20197;-60
2023/06/16 04:32:36;;;;;;;5.50;4.93;;;;;;;14.71;100.00;100178.84;5025719;28;20174;-61
2023/06/16 04:35:04;;;;;;;7.00;4.67;;;;;;;14.73;100.00;100176.94;5011483;28;20220;-60
2023/06/16 04:37:30;;;;;;;9.90;4.63;;;;;;;14.91;100.00;100176.56;5011031;28;20187;-62
2023/06/16 04:39:55;;;;;;;8.27;5.07;;;;;;;15.05;100.00;100166.03;5011640;28;20189;-62
2023/06/16 04:42:21;;;;;;;5.73;4.93;;;;;;;15.03;100.00;100173.09;5001000;28;20580;-61
2023/06/16 04:44:46;;;;;;;5.73;4.83;;;;;;;15.15;100.00;100172.19;5011941;28;20187;-61
2023/06/16 04:47:12;;;;;;;10.50;4.77;;;;;;;15.20;100.00;100171.88;5011161;28;20244;-63
2023/06/16 04:49:38;;;;;;;7.63;4.80;;;;;;;15.36;100.00;100174.19;5011846;28;20305;-61
2023/06/16 04:52:06;;;;;;;8.47;4.43;;;;;;;15.35;100.00;100171.69;5017039;28;20267;-61
2023/06/16 04:54:31;;;;;;;7.80;4.57;;;;;;;15.45;100.00;100176.06;5011487;28;20201;-61
2023/06/16 04:56:56;;;;;;;10.60;4.30;;;;;;;15.56;100.00;100177.06;5003560;28;20539;-63
2023/06/16 04:59:22;;;;;;;6.33;4.63;;;;;;;15.75;100.00;100166.97;5011148;28;20233;-61
2023/06/16 05:01:47;;;;;;;6.33;4.83;;;;;;;16.05;100.00;100168.22;5014941;28;20550;-61
2023/06/16 05:04:13;;;;;;;8.87;4.17;;;;;;;16.19;100.00;100168.94;5010244;28;20579;-61
2023/06/16 05:06:38;;;;;;;5.13;4.33;;;;;;;16.36;100.00;100162.41;5011114;28;20939;-62
2023/06/16 05:09:04;;;;;;;6.20;4.47;;;;;;;16.64;100.00;100165.44;5011067;28;20187;-61
2023/06/16 05:11:29;;;;;;;5.93;3.93;;;;;;;16.93;100.00;100163.13;5012082;28;20234;-61
2023/06/16 05:13:54;;;;;;;5.57;4.00;;;;;;;17.22;100.00;100158.19;5015126;28;20206;-61
2023/06/16 05:16:20;;;;;;;4.83;4.30;;;;;;;17.24;100.00;100161.50;5009973;28;20611;-61
2023/06/16 05:18:45;;;;;;;8.23;4.47;;;;;;;17.51;97.81;100161.94;5010866;28;20194;-62
2023/06/16 05:21:10;;;;;;;4.87;4.30;;;;;;;17.69;95.66;100159.59;5010205;28;20226;-61
2023/06/16 05:23:36;;;;;;;4.73;4.23;;;;;;;17.75;94.87;100159.88;5017984;28;20190;-62
2023/06/16 05:26:02;;;;;;;8.07;4.37;;;;;;;18.06;92.58;100164.31;5011044;28;20182;-61
2023/06/16 05:28:27;;;;;;;8.23;4.43;;;;;;;18.34;90.16;100160.16;5011225;28;20214;-61
2023/06/16 05:30:52;;;;;;;8.23;4.57;;;;;;;18.42;86.74;100158.66;5007580;28;20226;-61
2023/06/16 05:33:17;;;;;;;6.53;4.30;;;;;;;18.48;85.40;100169.41;5020180;28;20206;-60
2023/06/16 05:35:43;;;;;;;7.03;4.00;;;;;;;18.68;85.25;100166.81;5011104;28;20557;-62
2023/06/16 05:38:08;;;;;;;4.50;4.03;;;;;;;18.72;82.84;100170.81;5011152;28;20187;-60
2023/06/16 05:40:33;;;;;;;6.10;4.17;;;;;;;19.07;83.86;100174.69;5005068;28;20222;-61
2023/06/16 05:42:58;;;;;;;7.33;4.07;;;;;;;19.26;80.49;100173.84;5009461;28;20496;-61
2023/06/16 05:45:24;;;;;;;7.57;4.23;;;;;;;19.55;79.80;100180.00;5010135;28;20198;-62
2023/06/16 05:47:49;;;;;;;5.03;3.60;;;;;;;19.88;77.87;100173.50;4998519;28;20202;-61
2023/06/16 05:50:15;;;;;;;11.83;4.73;;;;;;;20.18;73.42;100165.56;5005545;28;20179;-61
2023/06/16 05:52:40;;;;;;;9.30;4.33;;;;;;;20.26;70.65;100176.94;5027603;28;20182;-61
2023/06/16 05:55:06;;;;;;;8.30;4.33;;;;;;;20.10;72.68;100169.72;5013776;28;20221;-61
2023/06/16 05:57:32;;;;;;;6.07;4.43;;;;;;;20.90;67.77;100170.91;5006754;28;20187;-62
2023/06/16 05:59:58;;;;;;;7.00;4.33;;;;;;;21.39;61.79;100173.94;5013971;28;20599;-61
2023/06/16 06:02:24;;;;;;;6.20;3.83;;;;;;;21.85;59.13;100181.63;5018972;28;20226;-60
2023/06/16 06:04:49;;;;;;;23.97;3.97;;;;;;;22.61;53.98;100180.97;5014077;28;20198;-61
2023/06/16 06:07:15;;;;;;;8.37;4.57;;;;;;;23.60;49.77;100187.09;5013238;28;20182;-62
2023/06/16 06:09:40;;;;;;;7.33;3.67;;;;;;;24.37;46.13;100188.34;5014431;28;20170;-61
2023/06/16 06:12:06;;;;;;;7.57;4.00;;;;;;;25.38;44.69;100196.28;5019400;28;20236;-62
2023/06/16 06:14:32;;;;;;;8.17;4.40;;;;;;;26.56;41.44;100195.63;5013888;28;20195;-60
2023/06/16 06:16:57;;;;;;;7.10;3.85;;;;;;;27.98;38.32;100199.22;5013374;28;20276;-63
2023/06/16 06:19:24;;;;;;;9.48;4.25;;;;;;;27.91;38.56;100208.94;5014198;28;20193;-61
2023/06/16 06:21:49;;;;;;;10.10;4.10;;;;;;;28.51;37.24;100211.03;5017579;28;20229;-61
2023/06/16 06:24:15;;;;;;;10.40;3.97;;;;;;;29.11;36.15;100218.28;5015478;28;20182;-61
2023/06/16 06:26:40;;;;;;;6.97;4.20;;;;;;;29.86;34.84;100215.38;5013396;28;20199;-61
2023/06/16 06:29:05;;;;;;;11.13;4.10;;;;;;;29.54;32.98;100223.19;5014023;28;20190;-62
2023/06/16 06:31:31;;;;;;;7.20;4.05;;;;;;;30.15;32.56;100223.88;5015245;28;20253;-61
2023/06/16 06:33:56;;;;;;;11.23;8.07;;;;;;;30.06;32.78;100217.97;5018016;28;20199;-62
2023/06/16 06:36:27;;;;;;;7.53;3.85;;;;;;;29.55;32.12;100231.97;5011804;28;20241;-61
2023/06/16 06:38:53;;;;;;;6.25;3.92;;;;;;;30.79;30.89;100233.78;5013662;28;20178;-61
2023/06/16 06:41:19;;;;;;;7.15;3.80;;;;;;;30.87;29.83;100231.69;5004959;28;20542;-61
2023/06/16 06:43:45;;;;;;;5.63;3.38;;;;;;;31.36;29.30;100247.09;5018958;28;20660;-62
2023/06/16 06:46:10;;;;;;;7.38;3.60;;;;;;;32.18;28.17;100248.72;5013155;28;20178;-61
2023/06/16 06:48:35;;;;;;;8.63;4.50;;;;;;;31.08;28.94;100243.00;5013394;28;20237;-63
2023/06/16 06:51:00;;;;;;;6.05;4.00;;;;;;;28.21;32.68;100253.66;5010577;28;20234;-61
2023/06/16 06:53:26;;;;;;;5.80;3.65;;;;;;;29.46;31.56;100244.63;5021132;28;20191;-62
2023/06/16 06:55:51;;;;;;;4.45;3.65;;;;;;;30.82;29.85;100254.59;5008328;28;20565;-62
2023/06/16 06:58:16;;;;;;;7.30;3.80;;;;;;;31.44;27.57;100256.63;5010217;28;20185;-62
2023/06/16 07:00:41;;;;;;;9.95;4.05;;;;;;;30.10;31.12;100263.47;4992209;28;20229;-62
2023/06/16 07:03:07;;;;;;;6.22;3.78;;;;;;;31.30;28.71;100261.25;5012759;28;20256;-62
2023/06/16 07:05:34;;;;;;;5.38;4.05;;;;;;;30.82;28.74;100265.22;5012754;28;20182;-62
2023/06/16 07:08:00;;;;;;;7.15;3.78;;;;;;;32.09;27.65;100272.16;5013154;28;20205;-62
2023/06/16 07:10:26;;;;;;;7.07;3.80;;;;;;;32.65;25.83;100270.25;5005376;28;20248;-62
2023/06/16 07:12:52;;;;;;;8.80;4.13;;;;;;;34.56;23.92;100265.75;5025182;28;20592;-62
2023/06/16 07:15:17;;;;;;;3.58;3.28;;;;;;;34.35;23.11;100272.59;5004489;28;20211;-64
2023/06/16 07:17:42;;;;;;;7.93;3.45;;;;;;;33.37;24.72;100270.44;5013120;28;20227;-62
2023/06/16 07:20:08;;;;;;;9.02;3.58;;;;;;;34.44;24.01;100273.81;5003845;28;20770;-61
2023/06/16 07:22:33;;;;;;;10.18;3.50;;;;;;;34.56;23.36;100274.56;5014046;28;20186;-61
2023/06/16 07:24:58;;;;;;;8.07;3.70;;;;;;;33.55;24.02;100280.19;5012630;28;20936;-63
2023/06/16 07:27:23;;;;;;;4.82;3.22;;;;;;;33.68;24.21;100281.81;5012688;28;20224;-61
2023/06/16 07:29:49;;;;;;;9.00;3.75;;;;;;;34.69;24.47;100278.00;5013112;28;20866;-62
2023/06/16 07:32:14;;;;;;;6.30;3.63;;;;;;;35.50;23.27;100275.09;4997280;28;20222;-61
2023/06/16 07:34:41;;;;;;;7.55;3.72;;;;;;;36.20;22.24;100285.38;5013064;28;20214;-62
2023/06/16 07:37:07;;;;;;;5.50;3.83;;;;;;;35.16;23.41;100284.97;5012219;28;20198;-62
2023/06/16 07:39:32;;;;;;;4.93;3.20;;;;;;;36.10;22.60;100280.69;5012622;28;20197;-61
2023/06/16 07:41:58;;;;;;;5.63;3.70;;;;;;;35.13;22.87;100288.09;5016859;28;20230;-61
2023/06/16 07:44:23;;;;;;;7.75;3.53;;;;;;;36.31;22.30;100288.97;5012610;28;20187;-61
2023/06/16 07:46:48;;;;;;;8.52;3.50;;;;;;;36.57;21.28;100287.41;5011897;28;20217;-61
2023/06/16 07:49:14;;;;;;;6.20;3.08;;;;;;;37.46;20.35;100290.59;5012656;28;20520;-61
2023/06/16 07:51:40;;;;;;;5.28;3.35;;;;;;;36.16;20.83;100286.94;5014867;28;20238;-62
2023/06/16 07:54:07;;;;;;;4.03;3.15;;;;;;;36.07;21.21;100291.09;5015329;28;20203;-61
2023/06/16 07:56:32;;;;;;;4.82;3.40;;;;;;;36.68;20.42;100288.31;5004601;28;20701;-61
2023/06/16 07:58:57;;;;;;;7.80;3.60;;;;;;;37.76;19.62;100282.94;5012347;28;20212;-62
2023/06/16 08:01:23;;;;;;;6.57;3.63;;;;;;;35.76;21.61;100279.97;5012650;28;20222;-61
2023/06/16 08:03:49;;;;;;;8.35;3.20;;;;;;;36.26;21.36;100279.00;5017284;28;20202;-62
2023/06/16 08:06:15;;;;;;;6.38;3.38;;;;;;;35.85;20.75;100276.63;5011682;28;20192;-61
2023/06/16 08:08:40;;;;;;;4.10;3.30;;;;;;;36.44;20.54;100277.06;5012169;28;20201;-61
2023/06/16 08:11:06;;;;;;;7.00;3.10;;;;;;;36.57;20.50;100282.03;5010467;28;20238;-63
2023/06/16 08:13:31;;;;;;;4.97;3.30;;;;;;;35.23;19.88;100269.56;5010946;28;20298;-62
2023/06/16 08:15:57;;;;;;;4.10;3.20;;;;;;;35.83;20.99;100264.53;5012155;28;20229;-62
2023/06/16 08:18:24;;;;;;;7.28;2.85;;;;;;;36.98;20.14;100268.22;5012342;28;20634;-61
2023/06/16 08:20:49;;;;;;;5.00;2.63;;;;;;;38.57;18.06;100268.19;5008210;28;20233;-62
2023/06/16 08:23:14;;;;;;;4.68;3.10;;;;;;;37.31;19.10;100271.66;5021278;28;20611;-62
2023/06/16 08:25:40;;;;;;;5.35;3.10;;;;;;;37.44;18.89;100273.13;5011772;28;20171;-62
2023/06/16 08:28:07;;;;;;;5.47;3.38;;;;;;;36.79;19.96;100273.13;5012126;28;20323;-61
2023/06/16 08:30:33;;;;;;;6.22;3.20;;;;;;;38.37;19.21;100276.25;5003442;28;20260;-61
2023/06/16 08:32:59;;;;;;;6.30;3.47;;;;;;;37.48;19.19;100271.53;5023013;28;20206;-62
2023/06/16 08:35:24;;;;;;;3.60;3.30;;;;;;;36.53;19.92;100272.06;5011596;28;20293;-62
2023/06/16 08:37:50;;;;;;;3.63;3.30;;;;;;;37.14;20.01;100275.31;5011893;28;20270;-62
2023/06/16 08:40:15;;;;;;;5.82;3.50;;;;;;;36.77;20.18;100272.59;5003339;28;20192;-62
2023/06/16 08:42:41;;;;;;;6.82;3.13;;;;;;;36.63;20.08;100266.81;5025022;28;20198;-62
2023/06/16 08:45:07;;;;;;;6.22;3.28;;;;;;;35.56;21.53;100267.94;5011616;28;20183;-61
2023/06/16 08:47:34;;;;;;;3.97;3.47;;;;;;;34.33;22.19;100269.31;5011837;28;20174;-61
2023/06/16 08:49:59;;;;;;;4.47;3.33;;;;;;;33.45;23.39;100259.44;5012119;28;20187;-61
2023/06/16 08:52:25;;;;;;;6.88;3.60;;;;;;;34.36;22.94;100255.50;5016587;28;20226;-61
2023/06/16 08:54:57;;;;;;;7.53;3.47;;;;;;;34.89;22.09;100256.19;5011774;28;20244;-61
2023/06/16 08:57:23;;;;;;;6.15;3.80;;;;;;;34.11;23.13;100248.59;5004215;28;20542;-62
2023/06/16 08:59:53;;;;;;;7.07;3.28;;;;;;;34.02;22.51;100248.16;5011925;28;20229;-62
2023/06/16 09:02:20;;;;;;;4.18;3.35;;;;;;;33.72;23.35;100249.09;5016461;28;20225;-61
2023/06/16 09:04:46;;;;;;;3.20;2.90;;;;;;;32.99;22.14;100257.31;5011774;28;20198;-61
2023/06/16 09:07:16;;;;;;;6.35;3.40;;;;;;;33.38;22.90;100232.91;5011240;28;20179;-61
2023/06/16 09:09:42;;;;;;;7.25;3.75;;;;;;;34.01;22.08;100237.72;5011033;28;20596;-60
2023/06/16 09:12:10;;;;;;;3.38;2.92;;;;;;;31.29;25.07;100244.47;5017157;28;20361;-62
2023/06/16 09:14:39;;;;;;;4.18;3.63;;;;;;;31.90;24.70;100233.28;5011816;28;20202;-61
2023/06/16 09:17:07;;;;;;;6.95;3.45;;;;;;;33.46;23.35;100237.88;5011346;28;20681;-59
2023/06/16 09:19:47;;;;;;;4.70;3.42;;;;;;;34.19;21.83;100239.41;5011944;28;20195;-60
2023/06/16 09:22:18;;;;;;;3.95;3.35;;;;;;;33.84;22.64;100233.13;5003391;28;20218;-60
2023/06/16 09:24:56;;;;;;;5.22;2.83;;;;;;;34.32;21.93;100236.44;5011224;28;20252;-61
2023/06/16 09:27:23;;;;;;;4.18;3.13;;;;;;;34.79;22.38;100238.09;5015184;28;20581;-61
2023/06/16 09:29:58;;;;;;;7.32;3.33;;;;;;;35.74;21.36;100240.09;5015317;28;20630;-61
2023/06/16 09:32:23;;;;;;;8.93;3.33;;;;;;;35.54;20.90;100236.09;5020166;28;20222;-61
2023/06/16 09:34:48;;;;;;;8.93;3.38;;;;;;;36.95;20.07;100240.06;5015284;28;20293;-61
2023/06/16 09:37:19;;;;;;;5.65;3.35;;;;;;;35.80;21.10;100238.28;5014744;28;20694;-61
2023/06/16 09:39:44;;;;;;;3.60;3.17;;;;;;;35.14;21.40;100230.94;5010060;28;20503;-60
2023/06/16 09:42:13;;;;;;;4.00;3.20;;;;;;;35.00;20.84;100219.75;5012439;28;20225;-61
2023/06/16 09:44:41;;;;;;;6.97;2.90;;;;;;;35.81;20.56;100224.66;5014911;28;20680;-61
2023/06/16 09:47:06;;;;;;;5.80;2.90;;;;;;;34.06;21.74;100216.47;5014409;28;20196;-61
2023/06/16 09:49:32;;;;;;;5.65;2.85;;;;;;;34.24;22.23;100218.94;5015226;28;20249;-62
2023/06/16 09:51:58;;;;;;;6.53;3.00;;;;;;;33.24;22.55;100218.94;5019745;28;20612;-62
2023/06/16 09:54:26;;;;;;;3.30;3.00;;;;;;;33.70;21.60;100221.84;5014725;28;20203;-61
2023/06/16 09:56:59;;;;;;;7.07;3.42;;;;;;;34.18;21.71;100216.44;5014297;28;20656;-62
2023/06/16 09:59:26;;;;;;;10.48;3.38;;;;;;;34.51;21.51;100214.91;5001948;28;20534;-61
2023/06/16 10:01:54;;;;;;;7.00;3.25;;;;;;;33.56;22.18;100217.81;5018402;28;20311;-61
2023/06/16 10:04:21;;;;;;;10.23;3.42;;;;;;;34.47;21.73;100217.25;5015358;28;20189;-61
2023/06/16 10:06:53;;;;;;;4.78;3.17;;;;;;;35.71;20.27;100225.34;5014508;28;20195;-61
2023/06/16 10:09:27;;;;;;;10.80;3.60;;;;;;;34.51;21.55;100218.41;5014367;28;20182;-61
2023/06/16 10:11:55;;;;;;;6.28;3.40;;;;;;;34.49;21.86;100219.69;5018289;28;20341;-60
2023/06/16 10:14:25;;;;;;;4.32;3.63;;;;;;;35.73;21.07;100208.25;5014770;28;20281;-61
2023/06/16 10:16:51;;;;;;;3.50;2.95;;;;;;;35.69;20.73;100207.94;5013485;28;20325;-61
2023/06/16 10:19:20;;;;;;;6.38;2.90;;;;;;;35.24;21.23;100207.00;5014518;28;20274;-61
2023/06/16 10:21:46;;;;;;;4.60;3.28;;;;;;;33.99;21.11;100213.13;5017262;28;20238;-61
2023/06/16 10:24:11;;;;;;;6.63;3.53;;;;;;;33.61;21.44;100207.25;5013082;28;20206;-61
2023/06/16 10:26:37;;;;;;;5.15;3.38;;;;;;;32.75;22.49;100200.50;5013429;28;20284;-61
2023/06/16 10:29:03;;;;;;;5.72;3.03;;;;;;;33.27;22.77;100210.50;5014265;28;20268;-61
2023/06/16 10:31:28;;;;;;;4.35;2.85;;;;;;;33.02;22.46;100208.06;5014748;28;20244;-61
2023/06/16 10:33:58;;;;;;;7.50;3.05;;;;;;;33.88;22.01;100204.13;5017745;28;20245;-61
2023/06/16 10:36:31;;;;;;;3.83;2.97;;;;;;;35.93;20.27;100202.34;5011694;28;20237;-63
2023/06/16 10:39:08;;;;;;;8.05;3.28;;;;;;;35.74;20.41;100207.97;5014114;28;20209;-61
2023/06/16 10:41:34;;;;;;;6.15;3.20;;;;;;;34.55;20.84;100200.03;5015419;28;20233;-61
2023/06/16 10:44:25;;;;;;;3.22;2.92;;;;;;;33.78;22.14;100197.47;5017483;28;20191;-62
2023/06/16 10:47:08;;;;;;;3.50;2.70;;;;;;;32.71;23.77;100182.50;5002279;28;20197;-61
2023/06/16 10:49:57;;;;;;;3.95;3.00;;;;;;;31.25;24.02;100178.69;5013662;28;20179;-62
2023/06/16 10:52:29;;;;;;;6.20;3.58;;;;;;;28.53;27.02;100168.50;5018623;28;20230;-60
2023/06/16 10:54:55;;;;;;;4.03;2.85;;;;;;;27.75;29.00;100174.88;5013484;28;20629;-61
2023/06/16 10:57:22;;;;;;;6.65;3.50;;;;;;;26.99;29.25;100179.00;5012773;28;20218;-61
2023/06/16 10:59:54;;;;;;;4.25;3.35;;;;;;;26.66;30.71;100169.75;5013452;28;20183;-60
2023/06/16 11:02:27;;;;;;;3.78;3.17;;;;;;;27.13;29.39;100166.72;4990135;28;20218;-60
2023/06/16 11:05:09;;;;;;;4.80;3.17;;;;;;;27.32;30.28;100167.91;5006349;28;20191;-62
2023/06/16 11:07:42;;;;;;;4.45;3.03;;;;;;;26.98;28.93;100178.19;5001654;28;20229;-62
2023/06/16 11:10:09;;;;;;;4.60;3.45;;;;;;;26.16;30.02;100159.06;5003688;28;20214;-62
2023/06/16 11:12:35;;;;;;;5.65;3.50;;;;;;;26.60;30.97;100170.50;5026926;28;20293;-60
2023/06/16 11:15:03;;;;;;;3.85;3.50;;;;;;;26.39;30.00;100161.53;5012550;28;20237;-62
2023/06/16 11:17:28;;;;;;;3.78;3.47;;;;;;;26.52;30.00;100165.31;4985313;28;20301;-61
2023/06/16 11:19:55;;;;;;;4.18;3.28;;;;;;;26.69;29.29;100164.09;5013049;28;20581;-62